sensor_id;sensor_type;location;lat;lon;timestamp;P1;durP1;ratioP1;P2;durP2;ratioP2
27670;SDS011;15077;49.704;9.908;2023-02-28T00:00:12;8.38;;;4.15;;
27670;SDS011;15077;49.704;9.908;2023-02-28T00:02:40;8.13;;;4.88;;
27670;SDS011;15077;49.704;9.908;2023-02-28T00:05:08;6.43;;;5.00;;
27670;SDS011;15077;49.704;9.908;2023-02-28T00:07:36;6.68;;;4.95;;
27670;SDS011;15077;49.704;9.908;2023-02-28T00:10:04;5.85;;;4.68;;
27670;SDS011;15077;49.704;9.908;2023-02-28T00:12:32;4.55;;;3.47;;
27670;SDS011;15077;49.704;9.908;2023-02-28T00:14:59;6.07;;;4.50;;
27670;SDS011;15077;49.704;9.908;2023-02-28T00:17:26;5.35;;;4.07;;
27670;SDS011;15077;49.704;9.908;2023-02-28T00:19:51;6.43;;;4.30;;
27670;SDS011;15077;49.704;9.908;2023-02-28T00:22:18;7.22;;;5.00;;
27670;SDS011;15077;49.704;9.908;2023-02-28T00:24:46;4.53;;;3.60;;
27670;SDS011;15077;49.704;9.908;2023-02-28T00:27:13;5.85;;;3.55;;
27670;SDS011;15077;49.704;9.908;2023-02-28T00:29:39;5.70;;;3.90;;
27670;SDS011;15077;49.704;9.908;2023-02-28T00:32:05;4.20;;;2.83;;
27670;SDS011;15077;49.704;9.908;2023-02-28T00:34:32;4.03;;;3.00;;
27670;SDS011;15077;49.704;9.908;2023-02-28T00:37:03;3.95;;;2.97;;
27670;SDS011;15077;49.704;9.908;2023-02-28T00:39:30;7.25;;;3.50;;
27670;SDS011;15077;49.704;9.908;2023-02-28T00:41:59;3.30;;;2.70;;
27670;SDS011;15077;49.704;9.908;2023-02-28T00:44:25;4.82;;;3.15;;
27670;SDS011;15077;49.704;9.908;2023-02-28T00:46:50;5.35;;;3.70;;
27670;SDS011;15077;49.704;9.908;2023-02-28T00:49:16;4.32;;;3.80;;
27670;SDS011;15077;49.704;9.908;2023-02-28T00:51:42;4.78;;;3.95;;
27670;SDS011;15077;49.704;9.908;2023-02-28T00:54:08;5.45;;;3.60;;
27670;SDS011;15077;49.704;9.908;2023-02-28T00:56:34;4.07;;;3.20;;
27670;SDS011;15077;49.704;9.908;2023-02-28T00:58:59;3.65;;;2.42;;
27670;SDS011;15077;49.704;9.908;2023-02-28T01:01:25;3.55;;;2.38;;
27670;SDS011;15077;49.704;9.908;2023-02-28T01:03:51;5.15;;;3.22;;
27670;SDS011;15077;49.704;9.908;2023-02-28T01:06:17;5.43;;;3.78;;
27670;SDS011;15077;49.704;9.908;2023-02-28T01:08:42;6.68;;;4.60;;
27670;SDS011;15077;49.704;9.908;2023-02-28T01:11:09;8.32;;;4.50;;
27670;SDS011;15077;49.704;9.908;2023-02-28T01:13:37;5.72;;;4.45;;
27670;SDS011;15077;49.704;9.908;2023-02-28T01:16:03;6.18;;;4.18;;
27670;SDS011;15077;49.704;9.908;2023-02-28T01:18:30;6.38;;;4.07;;
27670;SDS011;15077;49.704;9.908;2023-02-28T01:20:56;8.02;;;4.55;;
27670;SDS011;15077;49.704;9.908;2023-02-28T01:23:22;6.78;;;4.95;;
27670;SDS011;15077;49.704;9.908;2023-02-28T01:25:49;7.18;;;4.82;;
27670;SDS011;15077;49.704;9.908;2023-02-28T01:28:18;8.15;;;5.47;;
27670;SDS011;15077;49.704;9.908;2023-02-28T01:30:47;9.93;;;5.57;;
27670;SDS011;15077;49.704;9.908;2023-02-28T01:33:14;7.28;;;4.38;;
27670;SDS011;15077;49.704;9.908;2023-02-28T01:35:40;7.22;;;4.93;;
27670;SDS011;15077;49.704;9.908;2023-02-28T01:38:05;6.82;;;4.90;;
27670;SDS011;15077;49.704;9.908;2023-02-28T01:40:31;6.90;;;4.53;;
27670;SDS011;15077;49.704;9.908;2023-02-28T01:42:57;6.32;;;4.35;;
27670;SDS011;15077;49.704;9.908;2023-02-28T01:45:27;7.32;;;4.13;;
27670;SDS011;15077;49.704;9.908;2023-02-28T01:48:00;6.20;;;3.97;;
27670;SDS011;15077;49.704;9.908;2023-02-28T01:50:31;5.40;;;3.53;;
27670;SDS011;15077;49.704;9.908;2023-02-28T01:53:04;4.28;;;3.25;;
27670;SDS011;15077;49.704;9.908;2023-02-28T01:55:36;4.97;;;3.30;;
27670;SDS011;15077;49.704;9.908;2023-02-28T01:58:06;5.45;;;3.90;;
27670;SDS011;15077;49.704;9.908;2023-02-28T02:00:34;5.97;;;3.40;;
27670;SDS011;15077;49.704;9.908;2023-02-28T02:03:07;5.15;;;3.60;;
27670;SDS011;15077;49.704;9.908;2023-02-28T02:05:38;4.68;;;3.00;;
27670;SDS011;15077;49.704;9.908;2023-02-28T02:08:12;4.47;;;2.92;;
27670;SDS011;15077;49.704;9.908;2023-02-28T02:10:47;4.15;;;3.42;;
27670;SDS011;15077;49.704;9.908;2023-02-28T02:19:32;6.05;;;3.17;;
27670;SDS011;15077;49.704;9.908;2023-02-28T02:22:46;4.43;;;2.80;;
27670;SDS011;15077;49.704;9.908;2023-02-28T02:31:44;4.63;;;2.92;;
27670;SDS011;15077;49.704;9.908;2023-02-28T02:45:49;5.28;;;3.97;;
27670;SDS011;15077;49.704;9.908;2023-02-28T02:48:24;4.53;;;3.10;;
27670;SDS011;15077;49.704;9.908;2023-02-28T02:50:58;3.50;;;2.45;;
27670;SDS011;15077;49.704;9.908;2023-02-28T02:53:32;3.17;;;2.45;;
27670;SDS011;15077;49.704;9.908;2023-02-28T02:56:06;4.10;;;2.15;;
27670;SDS011;15077;49.704;9.908;2023-02-28T02:58:37;3.33;;;2.28;;
27670;SDS011;15077;49.704;9.908;2023-02-28T03:01:10;2.60;;;1.90;;
27670;SDS011;15077;49.704;9.908;2023-02-28T03:04:00;2.63;;;2.03;;
27670;SDS011;15077;49.704;9.908;2023-02-28T03:06:31;2.92;;;1.92;;
27670;SDS011;15077;49.704;9.908;2023-02-28T03:08:57;3.65;;;1.77;;
27670;SDS011;15077;49.704;9.908;2023-02-28T03:11:24;2.65;;;1.45;;
27670;SDS011;15077;49.704;9.908;2023-02-28T03:16:57;3.25;;;2.53;;
27670;SDS011;15077;49.704;9.908;2023-02-28T03:34:09;3.33;;;2.10;;
27670;SDS011;15077;49.704;9.908;2023-02-28T03:36:51;2.75;;;1.80;;
27670;SDS011;15077;49.704;9.908;2023-02-28T03:39:26;3.58;;;2.13;;
27670;SDS011;15077;49.704;9.908;2023-02-28T03:42:11;2.22;;;1.73;;
27670;SDS011;15077;49.704;9.908;2023-02-28T03:44:52;2.33;;;1.50;;
27670;SDS011;15077;49.704;9.908;2023-02-28T03:47:27;3.83;;;2.08;;
27670;SDS011;15077;49.704;9.908;2023-02-28T03:50:34;3.42;;;2.35;;
27670;SDS011;15077;49.704;9.908;2023-02-28T03:55:59;2.70;;;1.52;;
27670;SDS011;15077;49.704;9.908;2023-02-28T04:01:30;1.95;;;1.63;;
27670;SDS011;15077;49.704;9.908;2023-02-28T04:06:34;2.47;;;1.52;;
27670;SDS011;15077;49.704;9.908;2023-02-28T04:09:00;2.75;;;1.73;;
27670;SDS011;15077;49.704;9.908;2023-02-28T04:11:36;3.38;;;1.80;;
27670;SDS011;15077;49.704;9.908;2023-02-28T04:14:06;3.72;;;2.00;;
27670;SDS011;15077;49.704;9.908;2023-02-28T04:16:35;2.80;;;1.98;;
27670;SDS011;15077;49.704;9.908;2023-02-28T04:19:04;2.47;;;2.03;;
27670;SDS011;15077;49.704;9.908;2023-02-28T04:21:33;3.72;;;2.33;;
27670;SDS011;15077;49.704;9.908;2023-02-28T04:24:05;2.88;;;1.85;;
27670;SDS011;15077;49.704;9.908;2023-02-28T04:26:39;3.03;;;1.90;;
27670;SDS011;15077;49.704;9.908;2023-02-28T04:29:11;3.72;;;2.08;;
27670;SDS011;15077;49.704;9.908;2023-02-28T04:31:39;3.13;;;1.90;;
27670;SDS011;15077;49.704;9.908;2023-02-28T04:34:05;3.60;;;1.92;;
27670;SDS011;15077;49.704;9.908;2023-02-28T04:36:31;4.00;;;2.17;;
27670;SDS011;15077;49.704;9.908;2023-02-28T04:38:57;3.05;;;1.88;;
27670;SDS011;15077;49.704;9.908;2023-02-28T04:41:23;2.63;;;2.13;;
27670;SDS011;15077;49.704;9.908;2023-02-28T04:43:52;3.42;;;2.10;;
27670;SDS011;15077;49.704;9.908;2023-02-28T04:46:18;3.55;;;2.35;;
27670;SDS011;15077;49.704;9.908;2023-02-28T04:48:45;4.80;;;2.95;;
27670;SDS011;15077;49.704;9.908;2023-02-28T04:51:13;4.95;;;3.72;;
27670;SDS011;15077;49.704;9.908;2023-02-28T04:53:41;5.10;;;3.45;;
27670;SDS011;15077;49.704;9.908;2023-02-28T04:56:08;7.28;;;3.22;;
27670;SDS011;15077;49.704;9.908;2023-02-28T04:58:38;5.93;;;3.20;;
27670;SDS011;15077;49.704;9.908;2023-02-28T05:01:05;4.32;;;2.95;;
27670;SDS011;15077;49.704;9.908;2023-02-28T05:03:42;3.55;;;2.15;;
27670;SDS011;15077;49.704;9.908;2023-02-28T05:06:09;4.30;;;2.30;;
27670;SDS011;15077;49.704;9.908;2023-02-28T05:08:37;4.70;;;2.72;;
27670;SDS011;15077;49.704;9.908;2023-02-28T05:11:03;4.03;;;2.85;;
27670;SDS011;15077;49.704;9.908;2023-02-28T05:13:33;4.43;;;2.35;;
27670;SDS011;15077;49.704;9.908;2023-02-28T05:16:00;4.75;;;2.72;;
27670;SDS011;15077;49.704;9.908;2023-02-28T05:18:26;5.20;;;2.65;;
27670;SDS011;15077;49.704;9.908;2023-02-28T05:20:52;6.65;;;3.45;;
27670;SDS011;15077;49.704;9.908;2023-02-28T05:23:17;5.65;;;3.13;;
27670;SDS011;15077;49.704;9.908;2023-02-28T05:25:47;3.50;;;2.20;;
27670;SDS011;15077;49.704;9.908;2023-02-28T05:28:13;3.20;;;2.20;;
27670;SDS011;15077;49.704;9.908;2023-02-28T05:30:39;3.05;;;2.08;;
27670;SDS011;15077;49.704;9.908;2023-02-28T05:33:05;4.63;;;2.80;;
27670;SDS011;15077;49.704;9.908;2023-02-28T05:35:31;7.22;;;3.05;;
27670;SDS011;15077;49.704;9.908;2023-02-28T05:37:57;4.05;;;2.13;;
27670;SDS011;15077;49.704;9.908;2023-02-28T05:40:22;4.00;;;2.60;;
27670;SDS011;15077;49.704;9.908;2023-02-28T05:42:49;3.17;;;2.47;;
27670;SDS011;15077;49.704;9.908;2023-02-28T05:45:16;4.15;;;2.88;;
27670;SDS011;15077;49.704;9.908;2023-02-28T05:47:42;4.72;;;3.10;;
27670;SDS011;15077;49.704;9.908;2023-02-28T05:50:08;4.00;;;2.92;;
27670;SDS011;15077;49.704;9.908;2023-02-28T05:52:35;6.47;;;3.13;;
27670;SDS011;15077;49.704;9.908;2023-02-28T05:55:02;3.72;;;2.55;;
27670;SDS011;15077;49.704;9.908;2023-02-28T05:57:29;3.65;;;2.67;;
27670;SDS011;15077;49.704;9.908;2023-02-28T05:59:54;4.60;;;3.08;;
27670;SDS011;15077;49.704;9.908;2023-02-28T06:02:20;4.45;;;2.80;;
27670;SDS011;15077;49.704;9.908;2023-02-28T06:04:46;4.20;;;1.95;;
27670;SDS011;15077;49.704;9.908;2023-02-28T06:07:11;4.25;;;2.47;;
27670;SDS011;15077;49.704;9.908;2023-02-28T06:09:37;3.72;;;2.55;;
27670;SDS011;15077;49.704;9.908;2023-02-28T06:12:04;3.42;;;2.05;;
27670;SDS011;15077;49.704;9.908;2023-02-28T06:14:32;6.35;;;2.67;;
27670;SDS011;15077;49.704;9.908;2023-02-28T06:16:59;4.78;;;2.78;;
27670;SDS011;15077;49.704;9.908;2023-02-28T06:19:26;4.40;;;2.78;;
27670;SDS011;15077;49.704;9.908;2023-02-28T06:21:53;4.40;;;2.40;;
27670;SDS011;15077;49.704;9.908;2023-02-28T06:24:22;4.28;;;3.03;;
27670;SDS011;15077;49.704;9.908;2023-02-28T06:26:49;6.47;;;4.30;;
27670;SDS011;15077;49.704;9.908;2023-02-28T06:29:16;5.95;;;3.95;;
27670;SDS011;15077;49.704;9.908;2023-02-28T06:31:43;8.90;;;4.50;;
27670;SDS011;15077;49.704;9.908;2023-02-28T06:34:11;6.93;;;5.15;;
27670;SDS011;15077;49.704;9.908;2023-02-28T06:36:38;8.23;;;4.90;;
27670;SDS011;15077;49.704;9.908;2023-02-28T06:39:05;8.85;;;4.63;;
27670;SDS011;15077;49.704;9.908;2023-02-28T06:41:32;5.88;;;4.10;;
27670;SDS011;15077;49.704;9.908;2023-02-28T06:44:03;9.00;;;5.57;;
27670;SDS011;15077;49.704;9.908;2023-02-28T06:46:30;8.30;;;5.40;;
27670;SDS011;15077;49.704;9.908;2023-02-28T06:48:57;9.75;;;5.85;;
27670;SDS011;15077;49.704;9.908;2023-02-28T06:51:23;7.05;;;4.88;;
27670;SDS011;15077;49.704;9.908;2023-02-28T06:53:49;10.27;;;5.32;;
27670;SDS011;15077;49.704;9.908;2023-02-28T06:56:16;8.15;;;4.78;;
27670;SDS011;15077;49.704;9.908;2023-02-28T06:58:48;6.00;;;4.40;;
27670;SDS011;15077;49.704;9.908;2023-02-28T07:01:16;7.13;;;4.05;;
27670;SDS011;15077;49.704;9.908;2023-02-28T07:03:43;9.45;;;6.20;;
27670;SDS011;15077;49.704;9.908;2023-02-28T07:06:10;8.35;;;5.63;;
27670;SDS011;15077;49.704;9.908;2023-02-28T07:08:37;9.00;;;5.55;;
27670;SDS011;15077;49.704;9.908;2023-02-28T07:11:03;7.63;;;4.68;;
27670;SDS011;15077;49.704;9.908;2023-02-28T07:13:29;7.53;;;5.57;;
27670;SDS011;15077;49.704;9.908;2023-02-28T07:15:55;9.05;;;5.93;;
27670;SDS011;15077;49.704;9.908;2023-02-28T07:20:53;11.85;;;6.03;;
27670;SDS011;15077;49.704;9.908;2023-02-28T07:23:19;11.02;;;6.97;;
27670;SDS011;15077;49.704;9.908;2023-02-28T07:25:46;8.73;;;5.15;;
27670;SDS011;15077;49.704;9.908;2023-02-28T07:28:12;9.93;;;5.80;;
27670;SDS011;15077;49.704;9.908;2023-02-28T07:30:39;10.88;;;7.07;;
27670;SDS011;15077;49.704;9.908;2023-02-28T07:33:06;10.93;;;6.55;;
27670;SDS011;15077;49.704;9.908;2023-02-28T07:35:32;8.82;;;6.00;;
27670;SDS011;15077;49.704;9.908;2023-02-28T07:37:58;9.25;;;6.45;;
27670;SDS011;15077;49.704;9.908;2023-02-28T07:40:24;9.23;;;5.93;;
27670;SDS011;15077;49.704;9.908;2023-02-28T07:42:51;11.43;;;6.47;;
27670;SDS011;15077;49.704;9.908;2023-02-28T07:45:17;9.43;;;6.70;;
27670;SDS011;15077;49.704;9.908;2023-02-28T07:47:44;11.60;;;7.03;;
27670;SDS011;15077;49.704;9.908;2023-02-28T07:50:11;10.48;;;6.65;;
27670;SDS011;15077;49.704;9.908;2023-02-28T07:52:40;10.10;;;6.45;;
27670;SDS011;15077;49.704;9.908;2023-02-28T07:55:07;10.57;;;6.95;;
27670;SDS011;15077;49.704;9.908;2023-02-28T07:57:35;10.48;;;7.32;;
27670;SDS011;15077;49.704;9.908;2023-02-28T08:00:02;11.05;;;6.75;;
27670;SDS011;15077;49.704;9.908;2023-02-28T08:02:31;9.23;;;6.30;;
27670;SDS011;15077;49.704;9.908;2023-02-28T08:04:57;13.82;;;7.65;;
27670;SDS011;15077;49.704;9.908;2023-02-28T08:07:23;10.68;;;6.97;;
27670;SDS011;15077;49.704;9.908;2023-02-28T08:09:48;11.80;;;7.25;;
27670;SDS011;15077;49.704;9.908;2023-02-28T08:12:14;9.98;;;7.15;;
27670;SDS011;15077;49.704;9.908;2023-02-28T08:14:39;9.77;;;6.88;;
27670;SDS011;15077;49.704;9.908;2023-02-28T08:17:05;11.57;;;8.10;;
27670;SDS011;15077;49.704;9.908;2023-02-28T08:19:31;13.48;;;9.52;;
27670;SDS011;15077;49.704;9.908;2023-02-28T08:21:57;14.50;;;9.15;;
27670;SDS011;15077;49.704;9.908;2023-02-28T08:24:23;12.55;;;8.57;;
27670;SDS011;15077;49.704;9.908;2023-02-28T08:26:49;13.05;;;8.80;;
27670;SDS011;15077;49.704;9.908;2023-02-28T08:29:15;13.02;;;8.52;;
27670;SDS011;15077;49.704;9.908;2023-02-28T08:31:41;16.48;;;8.90;;
27670;SDS011;15077;49.704;9.908;2023-02-28T08:34:08;13.50;;;8.48;;
27670;SDS011;15077;49.704;9.908;2023-02-28T08:36:37;16.38;;;8.88;;
27670;SDS011;15077;49.704;9.908;2023-02-28T08:39:03;12.07;;;8.27;;
27670;SDS011;15077;49.704;9.908;2023-02-28T08:41:30;16.08;;;9.02;;
27670;SDS011;15077;49.704;9.908;2023-02-28T08:43:56;13.40;;;9.38;;
27670;SDS011;15077;49.704;9.908;2023-02-28T08:46:22;14.40;;;8.43;;
27670;SDS011;15077;49.704;9.908;2023-02-28T08:48:51;12.93;;;8.75;;
27670;SDS011;15077;49.704;9.908;2023-02-28T08:51:19;16.92;;;9.65;;
27670;SDS011;15077;49.704;9.908;2023-02-28T08:53:54;11.95;;;8.50;;
27670;SDS011;15077;49.704;9.908;2023-02-28T08:56:24;16.52;;;9.77;;
27670;SDS011;15077;49.704;9.908;2023-02-28T08:58:53;13.43;;;8.48;;
27670;SDS011;15077;49.704;9.908;2023-02-28T09:01:22;15.15;;;10.27;;
27670;SDS011;15077;49.704;9.908;2023-02-28T09:03:54;15.73;;;9.68;;
27670;SDS011;15077;49.704;9.908;2023-02-28T09:06:23;15.07;;;9.88;;
27670;SDS011;15077;49.704;9.908;2023-02-28T09:08:51;13.88;;;9.07;;
27670;SDS011;15077;49.704;9.908;2023-02-28T09:11:18;16.52;;;10.05;;
27670;SDS011;15077;49.704;9.908;2023-02-28T09:13:45;15.85;;;9.60;;
27670;SDS011;15077;49.704;9.908;2023-02-28T09:16:12;14.90;;;9.90;;
27670;SDS011;15077;49.704;9.908;2023-02-28T09:18:41;16.80;;;9.52;;
27670;SDS011;15077;49.704;9.908;2023-02-28T09:21:08;16.10;;;9.52;;
27670;SDS011;15077;49.704;9.908;2023-02-28T09:23:38;19.48;;;9.85;;
27670;SDS011;15077;49.704;9.908;2023-02-28T09:26:12;13.52;;;8.80;;
27670;SDS011;15077;49.704;9.908;2023-02-28T09:28:47;17.75;;;10.02;;
27670;SDS011;15077;49.704;9.908;2023-02-28T09:31:14;16.15;;;10.10;;
27670;SDS011;15077;49.704;9.908;2023-02-28T09:33:49;14.45;;;9.15;;
27670;SDS011;15077;49.704;9.908;2023-02-28T09:36:17;16.42;;;9.23;;
27670;SDS011;15077;49.704;9.908;2023-02-28T09:38:44;15.73;;;10.00;;
27670;SDS011;15077;49.704;9.908;2023-02-28T09:41:13;18.50;;;10.85;;
27670;SDS011;15077;49.704;9.908;2023-02-28T09:43:46;15.65;;;9.95;;
27670;SDS011;15077;49.704;9.908;2023-02-28T09:48:53;15.57;;;9.52;;
27670;SDS011;15077;49.704;9.908;2023-02-28T09:53:58;14.90;;;9.88;;
27670;SDS011;15077;49.704;9.908;2023-02-28T09:56:25;16.80;;;10.10;;
27670;SDS011;15077;49.704;9.908;2023-02-28T09:59:13;13.63;;;9.55;;
27670;SDS011;15077;49.704;9.908;2023-02-28T10:01:57;13.93;;;9.15;;
27670;SDS011;15077;49.704;9.908;2023-02-28T10:04:59;16.08;;;10.30;;
27670;SDS011;15077;49.704;9.908;2023-02-28T10:12:56;14.43;;;10.73;;
27670;SDS011;15077;49.704;9.908;2023-02-28T10:15:27;15.60;;;10.48;;
27670;SDS011;15077;49.704;9.908;2023-02-28T10:17:59;18.92;;;11.60;;
27670;SDS011;15077;49.704;9.908;2023-02-28T10:20:35;14.18;;;9.65;;
27670;SDS011;15077;49.704;9.908;2023-02-28T10:23:11;15.05;;;10.15;;
27670;SDS011;15077;49.704;9.908;2023-02-28T10:25:47;16.48;;;9.77;;
27670;SDS011;15077;49.704;9.908;2023-02-28T10:28:21;15.38;;;9.43;;
27670;SDS011;15077;49.704;9.908;2023-02-28T10:30:51;18.52;;;10.95;;
27670;SDS011;15077;49.704;9.908;2023-02-28T10:33:24;13.65;;;9.75;;
27670;SDS011;15077;49.704;9.908;2023-02-28T10:36:01;14.68;;;10.27;;
27670;SDS011;15077;49.704;9.908;2023-02-28T10:38:33;15.60;;;10.52;;
27670;SDS011;15077;49.704;9.908;2023-02-28T10:43:39;14.10;;;9.10;;
27670;SDS011;15077;49.704;9.908;2023-02-28T10:51:06;14.30;;;10.63;;
27670;SDS011;15077;49.704;9.908;2023-02-28T10:56:15;13.75;;;9.18;;
27670;SDS011;15077;49.704;9.908;2023-02-28T10:59:11;14.02;;;9.15;;
27670;SDS011;15077;49.704;9.908;2023-02-28T11:01:54;12.68;;;9.85;;
27670;SDS011;15077;49.704;9.908;2023-02-28T11:09:44;18.20;;;10.60;;
27670;SDS011;15077;49.704;9.908;2023-02-28T11:14:55;15.05;;;9.48;;
27670;SDS011;15077;49.704;9.908;2023-02-28T11:17:30;13.88;;;9.50;;
27670;SDS011;15077;49.704;9.908;2023-02-28T11:20:04;13.57;;;9.13;;
27670;SDS011;15077;49.704;9.908;2023-02-28T11:22:39;14.63;;;10.13;;
27670;SDS011;15077;49.704;9.908;2023-02-28T11:25:30;12.95;;;8.95;;
27670;SDS011;15077;49.704;9.908;2023-02-28T11:28:00;12.55;;;8.95;;
27670;SDS011;15077;49.704;9.908;2023-02-28T11:33:20;14.27;;;9.48;;
27670;SDS011;15077;49.704;9.908;2023-02-28T11:38:49;13.32;;;9.70;;
27670;SDS011;15077;49.704;9.908;2023-02-28T11:46:52;15.00;;;10.13;;
27670;SDS011;15077;49.704;9.908;2023-02-28T11:49:30;11.20;;;9.65;;
27670;SDS011;15077;49.704;9.908;2023-02-28T11:55:25;14.82;;;10.18;;
27670;SDS011;15077;49.704;9.908;2023-02-28T12:10:20;15.25;;;10.38;;
27670;SDS011;15077;49.704;9.908;2023-02-28T12:13:07;11.30;;;8.63;;
27670;SDS011;15077;49.704;9.908;2023-02-28T12:21:55;15.07;;;10.10;;
27670;SDS011;15077;49.704;9.908;2023-02-28T12:24:55;14.73;;;10.70;;
27670;SDS011;15077;49.704;9.908;2023-02-28T12:27:48;14.48;;;10.65;;
27670;SDS011;15077;49.704;9.908;2023-02-28T12:32:58;15.38;;;10.27;;
27670;SDS011;15077;49.704;9.908;2023-02-28T12:35:36;13.32;;;9.93;;
27670;SDS011;15077;49.704;9.908;2023-02-28T12:38:14;14.60;;;9.25;;
27670;SDS011;15077;49.704;9.908;2023-02-28T12:44:15;15.48;;;9.98;;
27670;SDS011;15077;49.704;9.908;2023-02-28T12:46:51;16.75;;;10.43;;
27670;SDS011;15077;49.704;9.908;2023-02-28T12:49:27;14.18;;;10.02;;
27670;SDS011;15077;49.704;9.908;2023-02-28T12:52:03;14.90;;;9.32;;
27670;SDS011;15077;49.704;9.908;2023-02-28T12:59:45;13.52;;;9.73;;
27670;SDS011;15077;49.704;9.908;2023-02-28T13:14:23;13.73;;;9.68;;
27670;SDS011;15077;49.704;9.908;2023-02-28T13:19:23;13.77;;;9.38;;
27670;SDS011;15077;49.704;9.908;2023-02-28T13:21:52;13.90;;;9.85;;
27670;SDS011;15077;49.704;9.908;2023-02-28T13:27:19;14.38;;;9.13;;
27670;SDS011;15077;49.704;9.908;2023-02-28T13:30:00;14.65;;;9.85;;
27670;SDS011;15077;49.704;9.908;2023-02-28T13:36:37;12.48;;;8.68;;
27670;SDS011;15077;49.704;9.908;2023-02-28T13:39:00;14.02;;;10.77;;
27670;SDS011;15077;49.704;9.908;2023-02-28T13:41:48;15.65;;;11.10;;
27670;SDS011;15077;49.704;9.908;2023-02-28T13:44:15;15.57;;;11.35;;
27670;SDS011;15077;49.704;9.908;2023-02-28T13:49:18;15.40;;;10.90;;
27670;SDS011;15077;49.704;9.908;2023-02-28T13:51:51;14.88;;;10.77;;
27670;SDS011;15077;49.704;9.908;2023-02-28T14:03:44;14.02;;;9.77;;
27670;SDS011;15077;49.704;9.908;2023-02-28T14:06:29;15.43;;;10.90;;
27670;SDS011;15077;49.704;9.908;2023-02-28T14:11:33;14.05;;;10.02;;
27670;SDS011;15077;49.704;9.908;2023-02-28T14:14:02;12.90;;;9.77;;
27670;SDS011;15077;49.704;9.908;2023-02-28T14:16:37;16.48;;;10.25;;
27670;SDS011;15077;49.704;9.908;2023-02-28T14:19:13;13.50;;;10.73;;
27670;SDS011;15077;49.704;9.908;2023-02-28T14:22:05;17.13;;;11.02;;
27670;SDS011;15077;49.704;9.908;2023-02-28T14:31:34;14.00;;;10.68;;
27670;SDS011;15077;49.704;9.908;2023-02-28T14:36:48;13.57;;;10.60;;
27670;SDS011;15077;49.704;9.908;2023-02-28T14:39:22;14.20;;;10.20;;
27670;SDS011;15077;49.704;9.908;2023-02-28T14:41:50;14.35;;;10.18;;
27670;SDS011;15077;49.704;9.908;2023-02-28T14:44:21;13.65;;;10.20;;
27670;SDS011;15077;49.704;9.908;2023-02-28T14:46:53;15.02;;;10.95;;
27670;SDS011;15077;49.704;9.908;2023-02-28T14:52:01;14.25;;;9.45;;
27670;SDS011;15077;49.704;9.908;2023-02-28T14:54:34;13.38;;;10.20;;
27670;SDS011;15077;49.704;9.908;2023-02-28T14:57:04;19.42;;;10.25;;
27670;SDS011;15077;49.704;9.908;2023-02-28T14:59:32;13.70;;;10.48;;
27670;SDS011;15077;49.704;9.908;2023-02-28T15:05:10;14.13;;;9.90;;
27670;SDS011;15077;49.704;9.908;2023-02-28T15:10:39;14.98;;;10.30;;
27670;SDS011;15077;49.704;9.908;2023-02-28T15:13:14;12.63;;;8.85;;
27670;SDS011;15077;49.704;9.908;2023-02-28T15:21:20;10.82;;;8.10;;
27670;SDS011;15077;49.704;9.908;2023-02-28T15:26:37;14.23;;;10.32;;
27670;SDS011;15077;49.704;9.908;2023-02-28T15:29:20;14.02;;;9.95;;
27670;SDS011;15077;49.704;9.908;2023-02-28T15:34:36;13.45;;;9.30;;
27670;SDS011;15077;49.704;9.908;2023-02-28T15:42:41;13.65;;;8.82;;
27670;SDS011;15077;49.704;9.908;2023-02-28T15:50:54;14.43;;;9.45;;
27670;SDS011;15077;49.704;9.908;2023-02-28T15:53:28;15.55;;;10.95;;
27670;SDS011;15077;49.704;9.908;2023-02-28T15:56:04;11.50;;;8.52;;
27670;SDS011;15077;49.704;9.908;2023-02-28T15:58:44;11.68;;;7.55;;
27670;SDS011;15077;49.704;9.908;2023-02-28T16:01:20;9.00;;;6.88;;
27670;SDS011;15077;49.704;9.908;2023-02-28T16:03:53;12.48;;;8.32;;
27670;SDS011;15077;49.704;9.908;2023-02-28T16:06:26;13.40;;;8.37;;
27670;SDS011;15077;49.704;9.908;2023-02-28T16:09:11;15.23;;;8.95;;
27670;SDS011;15077;49.704;9.908;2023-02-28T16:11:41;10.50;;;7.70;;
27670;SDS011;15077;49.704;9.908;2023-02-28T16:14:15;12.23;;;8.30;;
27670;SDS011;15077;49.704;9.908;2023-02-28T16:16:46;10.10;;;7.10;;
27670;SDS011;15077;49.704;9.908;2023-02-28T16:19:16;11.45;;;8.27;;
27670;SDS011;15077;49.704;9.908;2023-02-28T16:21:43;10.80;;;7.25;;
27670;SDS011;15077;49.704;9.908;2023-02-28T16:24:10;10.85;;;7.63;;
27670;SDS011;15077;49.704;9.908;2023-02-28T16:26:36;11.73;;;7.93;;
27670;SDS011;15077;49.704;9.908;2023-02-28T16:29:05;11.13;;;7.15;;
27670;SDS011;15077;49.704;9.908;2023-02-28T16:31:35;10.73;;;7.60;;
27670;SDS011;15077;49.704;9.908;2023-02-28T16:34:03;11.65;;;7.85;;
27670;SDS011;15077;49.704;9.908;2023-02-28T16:36:29;9.32;;;6.82;;
27670;SDS011;15077;49.704;9.908;2023-02-28T16:38:55;9.07;;;6.38;;
27670;SDS011;15077;49.704;9.908;2023-02-28T16:41:22;11.13;;;6.80;;
27670;SDS011;15077;49.704;9.908;2023-02-28T16:43:52;11.95;;;6.68;;
27670;SDS011;15077;49.704;9.908;2023-02-28T16:46:26;7.90;;;5.40;;
27670;SDS011;15077;49.704;9.908;2023-02-28T16:48:56;9.80;;;6.20;;
27670;SDS011;15077;49.704;9.908;2023-02-28T16:51:22;7.05;;;4.50;;
27670;SDS011;15077;49.704;9.908;2023-02-28T16:53:48;6.97;;;4.55;;
27670;SDS011;15077;49.704;9.908;2023-02-28T16:56:18;6.32;;;3.80;;
27670;SDS011;15077;49.704;9.908;2023-02-28T16:58:48;6.22;;;4.05;;
27670;SDS011;15077;49.704;9.908;2023-02-28T17:01:16;6.32;;;3.92;;
27670;SDS011;15077;49.704;9.908;2023-02-28T17:03:46;5.30;;;3.65;;
27670;SDS011;15077;49.704;9.908;2023-02-28T17:06:16;4.82;;;3.25;;
27670;SDS011;15077;49.704;9.908;2023-02-28T17:08:49;6.90;;;3.50;;
27670;SDS011;15077;49.704;9.908;2023-02-28T17:11:16;5.25;;;3.88;;
27670;SDS011;15077;49.704;9.908;2023-02-28T17:13:43;5.35;;;3.05;;
27670;SDS011;15077;49.704;9.908;2023-02-28T17:16:15;5.10;;;2.90;;
27670;SDS011;15077;49.704;9.908;2023-02-28T17:18:56;6.80;;;3.47;;
27670;SDS011;15077;49.704;9.908;2023-02-28T17:21:29;6.97;;;4.20;;
27670;SDS011;15077;49.704;9.908;2023-02-28T17:23:56;6.95;;;3.92;;
27670;SDS011;15077;49.704;9.908;2023-02-28T17:26:23;6.45;;;3.40;;
27670;SDS011;15077;49.704;9.908;2023-02-28T17:28:53;5.47;;;3.78;;
27670;SDS011;15077;49.704;9.908;2023-02-28T17:31:22;4.93;;;3.80;;
27670;SDS011;15077;49.704;9.908;2023-02-28T17:33:50;5.85;;;3.47;;
27670;SDS011;15077;49.704;9.908;2023-02-28T17:36:24;5.38;;;3.42;;
27670;SDS011;15077;49.704;9.908;2023-02-28T17:38:52;4.25;;;2.72;;
27670;SDS011;15077;49.704;9.908;2023-02-28T17:41:20;6.38;;;3.70;;
27670;SDS011;15077;49.704;9.908;2023-02-28T17:43:46;7.43;;;4.50;;
27670;SDS011;15077;49.704;9.908;2023-02-28T17:46:14;5.97;;;4.07;;
27670;SDS011;15077;49.704;9.908;2023-02-28T17:48:45;5.75;;;3.97;;
27670;SDS011;15077;49.704;9.908;2023-02-28T17:51:13;7.10;;;4.50;;
27670;SDS011;15077;49.704;9.908;2023-02-28T17:53:40;6.40;;;4.20;;
27670;SDS011;15077;49.704;9.908;2023-02-28T17:56:13;7.07;;;4.07;;
27670;SDS011;15077;49.704;9.908;2023-02-28T17:58:51;7.22;;;4.22;;
27670;SDS011;15077;49.704;9.908;2023-02-28T18:01:20;8.13;;;4.25;;
27670;SDS011;15077;49.704;9.908;2023-02-28T18:03:47;5.55;;;3.65;;
27670;SDS011;15077;49.704;9.908;2023-02-28T18:06:23;5.63;;;3.83;;
27670;SDS011;15077;49.704;9.908;2023-02-28T18:09:00;5.47;;;3.20;;
27670;SDS011;15077;49.704;9.908;2023-02-28T18:11:26;6.95;;;3.80;;
27670;SDS011;15077;49.704;9.908;2023-02-28T18:14:07;5.32;;;3.42;;
27670;SDS011;15077;49.704;9.908;2023-02-28T18:16:33;5.13;;;3.90;;
27670;SDS011;15077;49.704;9.908;2023-02-28T18:18:59;4.68;;;3.45;;
27670;SDS011;15077;49.704;9.908;2023-02-28T18:21:27;4.70;;;3.55;;